createdAt,value
2023-03-19T00:07:19.653Z,3.40
2023-03-19T00:12:23.396Z,3.20
2023-03-19T00:17:25.969Z,3.30
2023-03-19T00:22:28.696Z,2.90
2023-03-19T00:27:31.300Z,2.80
2023-03-19T00:32:34.299Z,2.70
2023-03-19T00:37:37.447Z,2.60
2023-03-19T00:42:40.090Z,2.50
2023-03-19T00:47:43.866Z,2.50
2023-03-19T00:52:48.870Z,2.40
2023-03-19T01:07:58.080Z,1.50
2023-03-19T01:13:00.949Z,1.70
2023-03-19T01:18:03.656Z,1.20
2023-03-19T01:23:07.188Z,1.00
2023-03-19T01:28:09.722Z,1.00
2023-03-19T01:33:14.953Z,1.30
2023-03-19T01:38:29.148Z,1.60
2023-03-19T01:43:37.625Z,1.40
2023-03-19T01:48:57.422Z,1.30
2023-03-19T01:54:04.496Z,1.20
2023-03-19T01:59:21.631Z,1.10
2023-03-19T02:05:07.967Z,1.10
2023-03-19T02:10:14.884Z,0.70
2023-03-19T02:20:27.198Z,0.70
2023-03-19T02:25:42.533Z,0.80
2023-03-19T02:30:45.925Z,0.80
2023-03-19T02:35:51.994Z,0.80
2023-03-19T02:41:13.059Z,1.20
2023-03-19T02:51:20.007Z,1.40
2023-03-19T03:06:29.129Z,0.30
2023-03-19T03:11:31.857Z,0.10
2023-03-19T03:21:38.146Z,0.70
2023-03-19T03:26:40.937Z,0.70
2023-03-19T03:41:50.132Z,0.60
2023-03-19T04:02:06.745Z,0.50
2023-03-19T04:22:27.365Z,0.00
2023-03-19T04:37:40.239Z,0.00
2023-03-19T04:42:44.676Z,0.30
2023-03-19T05:08:21.691Z,1.70
2023-03-19T05:28:43.818Z,3.10
2023-03-19T05:38:51.444Z,3.40
2023-03-19T05:49:22.487Z,3.60
2023-03-19T05:54:25.785Z,3.70
2023-03-19T05:59:48.726Z,3.70
2023-03-19T06:05:12.201Z,3.70
2023-03-19T06:10:14.907Z,4.10
2023-03-19T06:15:17.898Z,4.10
2023-03-19T06:20:20.394Z,4.40
2023-03-19T06:25:23.840Z,4.70
2023-03-19T06:30:27.532Z,4.90
2023-03-19T06:35:32.912Z,5.40
2023-03-19T06:40:36.263Z,5.90
2023-03-19T06:45:39.156Z,6.40
2023-03-19T06:50:42.003Z,6.80
2023-03-19T06:55:46.872Z,7.10
2023-03-19T07:00:49.689Z,7.30
2023-03-19T07:05:52.735Z,7.40
2023-03-19T07:11:04.931Z,7.30
2023-03-19T07:16:08.713Z,7.30
2023-03-19T07:21:11.634Z,7.30
2023-03-19T07:26:14.632Z,7.60
2023-03-19T07:31:17.771Z,8.10
2023-03-19T07:36:21.896Z,9.00
2023-03-19T07:41:25.350Z,9.00
2023-03-19T07:46:28.415Z,9.30
2023-03-19T07:51:31.075Z,9.30
2023-03-19T07:56:33.884Z,9.50
2023-03-19T08:01:36.543Z,9.50
2023-03-19T08:06:40.117Z,9.90
2023-03-19T08:11:42.583Z,10.10
2023-03-19T08:16:45.545Z,10.40
2023-03-19T08:21:48.062Z,10.60
2023-03-19T08:26:51.675Z,11.10
2023-03-19T08:31:56.724Z,11.00
2023-03-19T08:36:59.482Z,11.30
2023-03-19T08:42:02.016Z,11.70
2023-03-19T08:47:06.009Z,11.90
2023-03-19T08:52:09.380Z,12.20
2023-03-19T08:57:12.167Z,12.60
2023-03-19T09:02:14.982Z,12.90
2023-03-19T09:07:17.635Z,13.20
2023-03-19T09:12:20.617Z,13.50
2023-03-19T09:17:23.167Z,13.70
2023-03-19T09:22:26.112Z,13.60
2023-03-19T09:27:28.806Z,13.70
2023-03-19T09:32:31.680Z,10.80
2023-03-19T09:37:34.393Z,13.70
2023-03-19T09:43:09.481Z,14.00
2023-03-19T09:48:19.170Z,13.90
2023-03-19T09:53:44.688Z,13.90
2023-03-19T09:58:47.986Z,14.00
2023-03-19T10:04:09.527Z,13.80
2023-03-19T10:09:12.176Z,13.80
2023-03-19T10:14:45.009Z,13.60
2023-03-19T10:19:56.828Z,13.70
2023-03-19T10:25:00.253Z,13.70
2023-03-19T10:30:10.820Z,13.70
2023-03-19T10:35:24.511Z,14.00
2023-03-19T10:40:44.398Z,14.40
2023-03-19T10:45:49.172Z,14.70
2023-03-19T10:51:05.597Z,14.90
2023-03-19T10:56:23.088Z,14.60
2023-03-19T11:01:43.850Z,14.40
2023-03-19T11:06:51.639Z,14.40
2023-03-19T11:12:05.620Z,14.30
2023-03-19T11:17:26.097Z,15.20
2023-03-19T11:22:33.636Z,15.70
2023-03-19T11:27:36.467Z,15.80
2023-03-19T11:33:06.909Z,16.00
2023-03-19T11:38:20.500Z,16.00
2023-03-19T11:43:47.568Z,16.40
2023-03-19T11:49:16.523Z,16.50
2023-03-19T11:54:27.953Z,16.40
2023-03-19T11:59:55.024Z,16.30
2023-03-19T12:04:58.394Z,16.30
2023-03-19T12:10:03.766Z,16.40
2023-03-19T12:15:36.257Z,16.50
2023-03-19T12:21:05.392Z,16.60
2023-03-19T12:26:21.256Z,16.50
2023-03-19T12:31:48.720Z,16.60
2023-03-19T12:37:01.301Z,16.40
2023-03-19T12:42:06.326Z,15.90
2023-03-19T12:47:22.481Z,15.90
2023-03-19T12:52:49.459Z,16.30
2023-03-19T12:57:58.936Z,16.30
2023-03-19T13:03:31.187Z,16.20
2023-03-19T13:08:42.490Z,16.20
2023-03-19T13:13:58.648Z,16.30
2023-03-19T13:19:15.913Z,16.20
2023-03-19T13:24:18.407Z,16.20
2023-03-19T13:29:27.042Z,16.20
2023-03-19T13:34:34.333Z,16.40
2023-03-19T13:39:37.775Z,16.40
2023-03-19T13:44:57.249Z,16.50
2023-03-19T13:50:05.356Z,16.30
2023-03-19T13:55:30.085Z,16.30
2023-03-19T14:00:42.957Z,15.80
2023-03-19T14:05:48.395Z,15.80
2023-03-19T14:10:55.079Z,15.80
2023-03-19T14:16:08.605Z,16.20
2023-03-19T14:21:20.779Z,15.90
2023-03-19T14:26:28.910Z,15.70
2023-03-19T14:31:44.376Z,15.50
2023-03-19T14:36:58.614Z,15.40
2023-03-19T14:42:25.780Z,15.30
2023-03-19T14:47:38.290Z,15.10
2023-03-19T14:52:53.036Z,14.90
2023-03-19T14:57:57.052Z,14.80
2023-03-19T15:02:59.593Z,14.80
2023-03-19T15:08:05.554Z,14.60
2023-03-19T15:13:13.411Z,14.40
2023-03-19T15:18:17.105Z,14.50
2023-03-19T15:23:27.110Z,14.60
2023-03-19T15:28:45.873Z,14.60
2023-03-19T15:33:48.788Z,14.60
2023-03-19T15:39:11.897Z,14.50
2023-03-19T15:44:25.405Z,14.20
2023-03-19T15:49:37.195Z,13.90
2023-03-19T15:54:40.542Z,13.60
2023-03-19T15:59:43.844Z,13.20
2023-03-19T16:05:14.165Z,12.80
2023-03-19T16:10:28.305Z,12.50
2023-03-19T16:16:00.920Z,12.30
2023-03-19T16:21:22.141Z,11.90
2023-03-19T16:26:33.551Z,11.70
2023-03-19T16:31:46.023Z,11.40
2023-03-19T16:36:48.967Z,11.20
2023-03-19T16:42:39.450Z,10.80
2023-03-19T16:47:42.847Z,10.40
2023-03-19T16:52:47.296Z,10.30
2023-03-19T16:57:57.202Z,10.40
2023-03-19T17:03:00.596Z,10.30
2023-03-19T17:08:03.092Z,9.70
2023-03-19T17:13:06.329Z,9.30
2023-03-19T17:18:20.097Z,9.00
2023-03-19T17:23:26.879Z,8.80
2023-03-19T17:28:32.389Z,8.50
2023-03-19T17:33:35.093Z,8.50
2023-03-19T17:38:40.623Z,8.20
2023-03-19T17:43:44.216Z,8.10
2023-03-19T17:48:48.607Z,7.90
2023-03-19T17:53:55.590Z,7.90
2023-03-19T17:58:58.150Z,8.00
2023-03-19T18:04:02.152Z,7.80
2023-03-19T18:09:04.717Z,7.60
2023-03-19T18:14:07.178Z,7.60
2023-03-19T18:19:35.243Z,7.20
2023-03-19T18:24:38.858Z,7.10
2023-03-19T18:29:41.481Z,6.80
2023-03-19T18:34:44.152Z,6.70
2023-03-19T18:39:50.093Z,6.70
2023-03-19T18:44:52.803Z,6.50
2023-03-19T18:49:57.682Z,5.90
2023-03-19T18:55:00.497Z,5.80
2023-03-19T19:00:03.872Z,5.70
2023-03-19T19:10:12.395Z,5.40
2023-03-19T19:15:43.515Z,5.20
2023-03-19T19:20:47.966Z,5.00
2023-03-19T19:25:52.214Z,4.90
2023-03-19T19:30:57.571Z,4.90
2023-03-19T19:36:00.948Z,4.60
2023-03-19T19:41:03.527Z,4.50
2023-03-19T19:46:06.627Z,4.40
2023-03-19T19:51:18.286Z,4.30
2023-03-19T19:56:25.950Z,4.10
2023-03-19T20:11:36.045Z,3.40
2023-03-19T20:21:41.581Z,3.30
2023-03-19T20:26:44.267Z,3.40
2023-03-19T20:31:47.057Z,3.50
2023-03-19T21:02:22.173Z,2.90
2023-03-19T21:07:34.579Z,3.00
2023-03-19T21:27:52.274Z,2.90
2023-03-19T21:43:03.298Z,2.80
2023-03-19T21:53:10.532Z,2.90
2023-03-19T21:58:14.966Z,2.90
2023-03-19T22:03:19.891Z,2.70
2023-03-19T22:08:24.737Z,2.80
2023-03-19T22:13:35.443Z,2.90
2023-03-19T22:23:45.103Z,2.80
2023-03-19T22:38:53.775Z,2.90
2023-03-19T22:43:58.351Z,2.90
2023-03-19T22:49:01.753Z,2.60
2023-03-19T22:54:05.998Z,2.60
2023-03-19T22:59:08.799Z,2.70
2023-03-19T23:04:23.896Z,2.80
2023-03-19T23:09:32.244Z,2.60
2023-03-19T23:14:36.806Z,2.50
2023-03-19T23:19:39.532Z,2.30
2023-03-19T23:24:42.370Z,2.20
2023-03-19T23:34:59.211Z,2.40
2023-03-19T23:40:04.229Z,2.50
2023-03-19T23:45:07.913Z,2.50
2023-03-19T23:50:12.971Z,2.60
2023-03-19T23:55:15.695Z,2.50
